Time;durP1;ratioP1;P1;durP2;ratioP2;P2;SDS_P1;SDS_P2;PMS_P1;PMS_P2;Temp;Humidity;BMP_temperature;BMP_pressure;BME280_temperature;BME280_humidity;BME280_pressure;Samples;Min_cycle;Max_cycle;Signal;HPM_P1;HPM_P2
2022/05/17 00:01:46;;;;;;;17.55;8.32;;;;;;;;;;5078015;28;20288;-71
2022/05/17 00:04:11;;;;;;;23.50;9.37;;;;;;;;;;5068841;28;20451;-71
2022/05/17 00:06:36;;;;;;;20.37;9.83;;;;;;;;;;5069142;28;20279;-71
2022/05/17 00:09:01;;;;;;;15.30;9.53;;;;;;;;;;5073362;28;20270;-71
2022/05/17 00:11:28;;;;;;;21.40;9.40;;;;;;;;;;5083225;28;20688;-71
2022/05/17 00:13:53;;;;;;;15.77;8.95;;;;;;;;;;5071120;28;20024;-71
2022/05/17 00:16:18;;;;;;;19.58;9.70;;;;;;;;;;5063337;28;20410;-71
2022/05/17 00:18:43;;;;;;;12.80;8.55;;;;;;;;;;5059008;28;20024;-71
2022/05/17 00:21:09;;;;;;;16.23;9.27;;;;;;;;;;5067265;28;20016;-71
2022/05/17 00:23:36;;;;;;;20.45;8.50;;;;;;;;;;5067120;28;20031;-71
2022/05/17 00:26:01;;;;;;;17.67;8.52;;;;;;;;;;5075170;28;20640;-71
2022/05/17 00:28:27;;;;;;;20.13;8.95;;;;;;;;;;5062982;28;20024;-71
2022/05/17 00:30:53;;;;;;;16.92;9.77;;;;;;;;;;5068381;28;20027;-71
2022/05/17 00:33:18;;;;;;;20.08;9.07;;;;;;;;;;5065747;28;20016;-71
2022/05/17 00:35:46;;;;;;;15.48;9.18;;;;;;;;;;5063291;28;20027;-71
2022/05/17 00:38:12;;;;;;;18.02;8.88;;;;;;;;;;5065976;28;20025;-71
2022/05/17 00:40:37;;;;;;;16.30;8.48;;;;;;;;;;5076960;28;20029;-70
2022/05/17 00:43:05;;;;;;;15.45;8.77;;;;;;;;;;5071795;28;20017;-70
2022/05/17 00:45:30;;;;;;;15.52;8.55;;;;;;;;;;5067843;28;20027;-70
2022/05/17 00:48:04;;;;;;;17.23;9.27;;;;;;;;;;5065460;28;20013;-70
2022/05/17 00:50:32;;;;;;;18.02;9.13;;;;;;;;;;5061984;28;20055;-70
2022/05/17 00:53:00;;;;;;;17.63;9.00;;;;;;;;;;5072334;28;20069;-70
2022/05/17 00:55:27;;;;;;;17.25;8.80;;;;;;;;;;5076550;28;20012;-71
2022/05/17 00:58:13;;;;;;;15.50;9.38;;;;;;;;;;5070640;28;20492;-71
2022/05/17 01:00:50;;;;;;;16.70;9.25;;;;;;;;;;5066864;28;20203;-71
2022/05/17 01:03:17;;;;;;;18.63;9.80;;;;;;;;;;5071280;28;20016;-71
2022/05/17 01:05:44;;;;;;;15.90;9.38;;;;;;;;;;5071338;28;20044;-71
2022/05/17 01:08:10;;;;;;;16.35;8.77;;;;;;;;;;5070270;28;20409;-71
2022/05/17 01:10:36;;;;;;;22.23;9.20;;;;;;;;;;5072520;28;20040;-71
2022/05/17 01:15:45;;;;;;;22.42;9.00;;;;;;;;;;5074657;28;20453;-71
2022/05/17 01:18:10;;;;;;;16.55;9.45;;;;;;;;;;5064303;28;20024;-71
2022/05/17 01:20:36;;;;;;;21.00;9.45;;;;;;;;;;5076570;28;20055;-71
2022/05/17 01:23:01;;;;;;;20.38;9.48;;;;;;;;;;5076577;28;20069;-71
2022/05/17 01:25:28;;;;;;;23.35;10.85;;;;;;;;;;5079054;28;20027;-71
2022/05/17 01:28:02;;;;;;;19.13;10.18;;;;;;;;;;5078682;28;20013;-71
2022/05/17 01:30:28;;;;;;;17.95;9.60;;;;;;;;;;5074280;28;20035;-71
2022/05/17 01:32:53;;;;;;;18.50;9.45;;;;;;;;;;5073242;28;20021;-71
2022/05/17 01:35:19;;;;;;;19.35;9.95;;;;;;;;;;5077237;28;20376;-71
2022/05/17 01:37:45;;;;;;;16.63;8.93;;;;;;;;;;5074510;28;20385;-71
2022/05/17 01:40:10;;;;;;;19.20;9.65;;;;;;;;;;5072055;28;20496;-71
2022/05/17 01:42:36;;;;;;;14.82;8.90;;;;;;;;;;5078130;28;20028;-71
2022/05/17 01:45:02;;;;;;;15.60;8.43;;;;;;;;;;5073237;28;20013;-71
2022/05/17 01:47:28;;;;;;;20.45;9.52;;;;;;;;;;5075164;28;20028;-71
2022/05/17 01:49:54;;;;;;;22.48;9.35;;;;;;;;;;5077119;28;20089;-71
2022/05/17 01:52:19;;;;;;;24.40;9.67;;;;;;;;;;5081387;28;20107;-71
2022/05/17 01:54:44;;;;;;;17.10;9.27;;;;;;;;;;5079889;28;20278;-71
2022/05/17 01:57:09;;;;;;;15.63;9.00;;;;;;;;;;5074550;28;20027;-71
2022/05/17 01:59:35;;;;;;;14.47;9.27;;;;;;;;;;5078436;28;20278;-71
2022/05/17 02:02:01;;;;;;;24.65;10.15;;;;;;;;;;5071192;28;21046;-71
2022/05/17 02:04:26;;;;;;;20.23;9.25;;;;;;;;;;5078107;28;20099;-71
2022/05/17 02:06:51;;;;;;;21.75;9.02;;;;;;;;;;5075543;28;20095;-71
2022/05/17 02:09:17;;;;;;;19.00;8.73;;;;;;;;;;5061757;28;20025;-71
2022/05/17 02:11:42;;;;;;;15.55;9.77;;;;;;;;;;5076577;28;20304;-71
2022/05/17 02:14:07;;;;;;;22.50;9.32;;;;;;;;;;5072821;28;20032;-71
2022/05/17 02:16:36;;;;;;;22.50;9.70;;;;;;;;;;5068796;28;20035;-71
2022/05/17 02:19:01;;;;;;;17.92;9.57;;;;;;;;;;5074109;28;20052;-71
2022/05/17 02:21:27;;;;;;;17.60;9.48;;;;;;;;;;5068532;28;20064;-71
2022/05/17 02:23:52;;;;;;;16.23;9.60;;;;;;;;;;5076894;28;20020;-71
2022/05/17 02:26:17;;;;;;;22.03;9.17;;;;;;;;;;5075065;28;20345;-71
2022/05/17 02:28:43;;;;;;;14.15;8.52;;;;;;;;;;5074028;28;20321;-71
2022/05/17 02:31:10;;;;;;;19.75;9.63;;;;;;;;;;5069245;28;20454;-71
2022/05/17 02:33:35;;;;;;;15.65;9.68;;;;;;;;;;5062524;28;20028;-71
2022/05/17 02:36:00;;;;;;;16.90;9.13;;;;;;;;;;5063846;28;20492;-71
2022/05/17 02:38:26;;;;;;;16.10;9.63;;;;;;;;;;5074403;28;20040;-71
2022/05/17 02:40:51;;;;;;;14.50;10.32;;;;;;;;;;5083504;28;20619;-71
2022/05/17 02:43:16;;;;;;;16.60;9.07;;;;;;;;;;5070341;28;20073;-71
2022/05/17 02:45:42;;;;;;;15.97;9.43;;;;;;;;;;5067284;28;20020;-71
2022/05/17 02:48:07;;;;;;;18.43;8.13;;;;;;;;;;5074252;28;21227;-71
2022/05/17 02:50:32;;;;;;;16.63;9.15;;;;;;;;;;5079754;28;20296;-71
2022/05/17 02:52:57;;;;;;;21.02;9.43;;;;;;;;;;5067088;28;20027;-71
2022/05/17 02:55:22;;;;;;;16.73;9.73;;;;;;;;;;5078388;28;20020;-71
2022/05/17 02:57:48;;;;;;;18.65;10.00;;;;;;;;;;5073095;28;20013;-71
2022/05/17 03:00:14;;;;;;;16.50;9.53;;;;;;;;;;5067607;28;20068;-71
2022/05/17 03:02:40;;;;;;;17.20;9.05;;;;;;;;;;5075765;28;20356;-71
2022/05/17 03:05:05;;;;;;;21.88;9.77;;;;;;;;;;5068681;28;20034;-71
2022/05/17 03:07:31;;;;;;;16.50;9.35;;;;;;;;;;5073616;28;20646;-71
2022/05/17 03:09:56;;;;;;;20.05;9.88;;;;;;;;;;5075873;28;20104;-71
2022/05/17 03:12:22;;;;;;;16.48;10.07;;;;;;;;;;5072966;28;20020;-71
2022/05/17 03:14:47;;;;;;;16.83;10.03;;;;;;;;;;5066131;28;20035;-71
2022/05/17 03:17:13;;;;;;;23.23;10.57;;;;;;;;;;5063386;28;20267;-71
2022/05/17 03:19:39;;;;;;;14.75;9.45;;;;;;;;;;5062018;28;20282;-71
2022/05/17 03:22:04;;;;;;;15.32;9.13;;;;;;;;;;5071163;28;20017;-71
2022/05/17 03:24:31;;;;;;;14.93;9.57;;;;;;;;;;5077527;22;20056;-65
2022/05/17 03:26:56;;;;;;;22.00;10.15;;;;;;;;;;5035410;28;20017;-66
2022/05/17 03:29:21;;;;;;;18.03;10.37;;;;;;;;;;5046022;28;20534;-66
2022/05/17 03:31:46;;;;;;;19.40;9.97;;;;;;;;;;5040289;28;20275;-64
2022/05/17 03:34:11;;;;;;;17.47;9.43;;;;;;;;;;5046170;28;20761;-66
2022/05/17 03:36:37;;;;;;;20.95;9.82;;;;;;;;;;5049971;28;20267;-65
2022/05/17 03:39:02;;;;;;;15.25;9.05;;;;;;;;;;5047124;28;20592;-66
2022/05/17 03:41:28;;;;;;;16.95;9.40;;;;;;;;;;5047630;28;20031;-65
2022/05/17 03:43:53;;;;;;;19.85;10.35;;;;;;;;;;5047172;28;20020;-65
2022/05/17 03:46:18;;;;;;;19.90;9.60;;;;;;;;;;5044121;28;20393;-65
2022/05/17 03:48:43;;;;;;;21.67;10.07;;;;;;;;;;5050220;28;20401;-65
2022/05/17 03:51:13;;;;;;;15.70;9.47;;;;;;;;;;5047858;28;20647;-66
2022/05/17 03:53:38;;;;;;;16.10;8.90;;;;;;;;;;5049369;28;20321;-65
2022/05/17 03:56:03;;;;;;;20.52;9.95;;;;;;;;;;5047244;28;20028;-65
2022/05/17 03:58:29;;;;;;;13.77;9.20;;;;;;;;;;5048852;28;20035;-65
2022/05/17 04:00:54;;;;;;;14.87;10.17;;;;;;;;;;5046498;28;20021;-65
2022/05/17 04:03:19;;;;;;;15.33;9.90;;;;;;;;;;5045741;28;20291;-64
2022/05/17 04:05:45;;;;;;;21.80;10.75;;;;;;;;;;5046256;28;20286;-65
2022/05/17 04:08:10;;;;;;;20.02;10.48;;;;;;;;;;5048452;28;20032;-66
2022/05/17 04:10:36;;;;;;;17.77;9.90;;;;;;;;;;5048921;28;20055;-65
2022/05/17 04:13:01;;;;;;;18.77;10.45;;;;;;;;;;5048039;28;20329;-65
2022/05/17 04:15:26;;;;;;;15.57;9.70;;;;;;;;;;5045264;28;20104;-65
2022/05/17 04:17:54;;;;;;;21.50;11.20;;;;;;;;;;5048339;28;20377;-65
2022/05/17 04:20:19;;;;;;;24.00;11.20;;;;;;;;;;5047134;28;20275;-65
2022/05/17 04:22:46;;;;;;;26.77;11.23;;;;;;;;;;5047405;28;20021;-65
2022/05/17 04:25:11;;;;;;;21.05;11.23;;;;;;;;;;5045959;28;20070;-65
2022/05/17 04:27:36;;;;;;;21.45;11.68;;;;;;;;;;5049254;28;20033;-65
2022/05/17 04:30:02;;;;;;;23.90;11.38;;;;;;;;;;5045817;28;20083;-65
2022/05/17 04:32:27;;;;;;;19.13;11.48;;;;;;;;;;5046504;28;20068;-65
2022/05/17 04:34:52;;;;;;;20.03;10.67;;;;;;;;;;5046030;28;20033;-65
2022/05/17 04:37:18;;;;;;;25.53;11.93;;;;;;;;;;5047016;28;20271;-65
2022/05/17 04:39:43;;;;;;;19.98;10.85;;;;;;;;;;5048274;28;20370;-65
2022/05/17 04:42:08;;;;;;;20.97;10.40;;;;;;;;;;5048192;28;20474;-65
2022/05/17 04:44:33;;;;;;;22.08;11.23;;;;;;;;;;5048097;28;20268;-65
2022/05/17 04:46:59;;;;;;;20.37;11.03;;;;;;;;;;5047969;28;20533;-65
2022/05/17 04:49:24;;;;;;;22.20;10.93;;;;;;;;;;5048789;28;20621;-65
2022/05/17 04:51:50;;;;;;;17.95;10.35;;;;;;;;;;5047893;28;20267;-66
2022/05/17 04:54:15;;;;;;;23.00;10.93;;;;;;;;;;5047911;28;20021;-65
2022/05/17 04:56:40;;;;;;;18.23;10.55;;;;;;;;;;5047878;28;20025;-65
2022/05/17 04:59:05;;;;;;;16.53;10.57;;;;;;;;;;5046764;28;20025;-66
2022/05/17 05:01:34;;;;;;;19.70;9.77;;;;;;;;;;5047755;28;20831;-66
2022/05/17 05:03:59;;;;;;;19.23;11.07;;;;;;;;;;5048019;28;20278;-66
2022/05/17 05:06:27;;;;;;;16.35;9.80;;;;;;;;;;5048437;28;20025;-66
2022/05/17 05:08:52;;;;;;;17.17;10.50;;;;;;;;;;5047837;28;20488;-65
2022/05/17 05:11:17;;;;;;;18.80;9.80;;;;;;;;;;5047658;28;20056;-65
2022/05/17 05:13:43;;;;;;;17.10;10.32;;;;;;;;;;5043929;28;20025;-65
2022/05/17 05:16:10;;;;;;;16.58;9.20;;;;;;;;;;5049363;28;20060;-66
2022/05/17 05:18:35;;;;;;;17.42;9.43;;;;;;;;;;5046598;28;20081;-65
2022/05/17 05:21:09;;;;;;;18.23;9.60;;;;;;;;;;5044585;28;20037;-66
2022/05/17 05:23:34;;;;;;;14.63;8.23;;;;;;;;;;5043176;28;20442;-66
2022/05/17 05:26:00;;;;;;;15.73;9.10;;;;;;;;;;5047789;28;20060;-66
2022/05/17 05:28:25;;;;;;;16.83;9.57;;;;;;;;;;5044145;28;20501;-65
2022/05/17 05:30:50;;;;;;;20.30;9.52;;;;;;;;;;5046223;28;20024;-66
2022/05/17 05:33:16;;;;;;;18.90;8.53;;;;;;;;;;5046808;28;20029;-66
2022/05/17 05:35:41;;;;;;;13.77;8.17;;;;;;;;;;5022365;28;20283;-65
2022/05/17 05:38:06;;;;;;;15.97;7.63;;;;;;;;;;5046238;28;20291;-66
2022/05/17 05:40:31;;;;;;;16.17;7.80;;;;;;;;;;5044897;28;20275;-66
2022/05/17 05:42:57;;;;;;;14.87;7.53;;;;;;;;;;5046006;28;20398;-66
2022/05/17 05:45:22;;;;;;;12.07;6.93;;;;;;;;;;5046446;28;20268;-66
2022/05/17 05:47:47;;;;;;;14.93;7.67;;;;;;;;;;5045811;28;20025;-69
2022/05/17 05:50:12;;;;;;;17.13;7.40;;;;;;;;;;5045653;28;20271;-68
2022/05/17 05:52:38;;;;;;;15.13;7.68;;;;;;;;;;5045763;28;20279;-67
2022/05/17 05:55:03;;;;;;;12.52;6.70;;;;;;;;;;5045660;28;20116;-68
2022/05/17 05:57:28;;;;;;;14.18;7.40;;;;;;;;;;5042685;28;20025;-67
2022/05/17 05:59:54;;;;;;;19.23;7.20;;;;;;;;;;5043114;28;20064;-67
2022/05/17 06:02:19;;;;;;;15.13;6.88;;;;;;;;;;5041341;28;20481;-66
2022/05/17 06:04:45;;;;;;;15.68;6.55;;;;;;;;;;5046993;28;20021;-66
2022/05/17 06:07:10;;;;;;;11.70;6.45;;;;;;;;;;5051124;28;20017;-67
2022/05/17 06:09:35;;;;;;;16.42;6.75;;;;;;;;;;5051713;28;20109;-67
2022/05/17 06:12:00;;;;;;;15.05;6.32;;;;;;;;;;5051940;28;20071;-66
2022/05/17 06:14:26;;;;;;;18.02;7.13;;;;;;;;;;5051501;28;20489;-66
2022/05/17 06:16:52;;;;;;;15.70;6.93;;;;;;;;;;5049558;28;20144;-66
2022/05/17 06:19:17;;;;;;;10.88;5.93;;;;;;;;;;5048453;28;20524;-66
2022/05/17 06:21:42;;;;;;;14.73;6.20;;;;;;;;;;5047749;28;20745;-66
2022/05/17 06:24:08;;;;;;;17.60;6.63;;;;;;;;;;5046798;28;20036;-65
2022/05/17 06:26:33;;;;;;;11.60;6.22;;;;;;;;;;5047178;28;20616;-65
2022/05/17 06:28:59;;;;;;;10.05;5.07;;;;;;;;;;5050448;28;20020;-65
2022/05/17 06:31:24;;;;;;;14.85;4.75;;;;;;;;;;5050191;28;20071;-65
2022/05/17 06:33:50;;;;;;;13.50;6.27;;;;;;;;;;5051909;28;20020;-65
2022/05/17 06:36:15;;;;;;;12.30;5.40;;;;;;;;;;5050507;28;20287;-67
2022/05/17 06:38:40;;;;;;;12.73;5.60;;;;;;;;;;5051390;28;20013;-66
2022/05/17 06:41:05;;;;;;;11.93;6.13;;;;;;;;;;5050877;28;20707;-67
2022/05/17 06:43:34;;;;;;;12.02;5.68;;;;;;;;;;5051195;28;20267;-66
2022/05/17 06:45:59;;;;;;;12.95;6.38;;;;;;;;;;5049264;28;20013;-67
2022/05/17 06:48:24;;;;;;;15.07;6.13;;;;;;;;;;5050114;28;20100;-66
2022/05/17 06:50:49;;;;;;;11.60;6.03;;;;;;;;;;5052032;28;20465;-67
2022/05/17 06:53:14;;;;;;;19.80;5.03;;;;;;;;;;5050626;28;20276;-67
2022/05/17 06:55:41;;;;;;;11.90;4.60;;;;;;;;;;5048854;28;20823;-67
2022/05/17 06:58:06;;;;;;;11.38;4.70;;;;;;;;;;5048066;28;20017;-67
2022/05/17 07:00:31;;;;;;;13.83;4.80;;;;;;;;;;5045232;28;20108;-67
2022/05/17 07:02:57;;;;;;;12.67;5.13;;;;;;;;;;5051579;28;20258;-67
2022/05/17 07:05:22;;;;;;;8.40;4.63;;;;;;;;;;5050672;28;20782;-64
2022/05/17 07:07:47;;;;;;;10.80;4.17;;;;;;;;;;5049336;28;20024;-65
2022/05/17 07:13:08;;;;;;;14.27;4.78;;;;;;;;;;5046005;28;20086;-65
2022/05/17 07:15:34;;;;;;;13.77;4.47;;;;;;;;;;5031088;28;20068;-65
2022/05/17 07:18:02;;;;;;;16.63;5.00;;;;;;;;;;5031445;28;20048;-65
2022/05/17 07:20:28;;;;;;;11.23;4.40;;;;;;;;;;5050368;28;20024;-65
2022/05/17 07:22:53;;;;;;;10.90;3.78;;;;;;;;;;5048970;28;20033;-65
2022/05/17 07:25:18;;;;;;;12.50;3.57;;;;;;;;;;5050402;28;20085;-65
2022/05/17 07:27:43;;;;;;;14.73;3.90;;;;;;;;;;5050217;28;20279;-65
2022/05/17 07:30:09;;;;;;;14.00;3.80;;;;;;;;;;5050359;28;20017;-64
2022/05/17 07:32:34;;;;;;;10.98;3.70;;;;;;;;;;5050378;28;20271;-65
2022/05/17 07:34:59;;;;;;;10.17;3.63;;;;;;;;;;5048696;28;20075;-65
2022/05/17 07:37:24;;;;;;;10.57;3.80;;;;;;;;;;5048119;28;20352;-65
2022/05/17 07:39:50;;;;;;;8.60;3.10;;;;;;;;;;5048865;28;20877;-65
2022/05/17 07:42:15;;;;;;;5.88;2.95;;;;;;;;;;5049608;28;20418;-66
2022/05/17 07:44:41;;;;;;;10.13;3.63;;;;;;;;;;5046945;28;20032;-65
2022/05/17 07:47:06;;;;;;;13.63;3.75;;;;;;;;;;5050990;28;20020;-65
2022/05/17 07:49:31;;;;;;;7.32;2.85;;;;;;;;;;5048175;28;20025;-65
2022/05/17 07:51:57;;;;;;;11.48;3.35;;;;;;;;;;5050350;28;20017;-66
2022/05/17 07:54:22;;;;;;;9.32;3.00;;;;;;;;;;5046143;28;20017;-65
2022/05/17 07:56:47;;;;;;;10.13;3.10;;;;;;;;;;5049726;28;20084;-68
2022/05/17 07:59:12;;;;;;;9.82;4.05;;;;;;;;;;5046690;28;20381;-65
2022/05/17 08:01:37;;;;;;;8.43;4.30;;;;;;;;;;5044995;28;20013;-66
2022/05/17 08:04:03;;;;;;;12.43;3.40;;;;;;;;;;5043034;28;20051;-69
2022/05/17 08:06:28;;;;;;;16.00;3.85;;;;;;;;;;5048237;28;20017;-67
2022/05/17 08:08:54;;;;;;;12.90;4.13;;;;;;;;;;5049742;28;20480;-67
2022/05/17 08:11:19;;;;;;;9.43;4.18;;;;;;;;;;5048480;28;20100;-66
2022/05/17 08:13:44;;;;;;;12.00;3.63;;;;;;;;;;5047266;28;20063;-67
2022/05/17 08:16:10;;;;;;;12.48;4.38;;;;;;;;;;5046544;28;20490;-67
2022/05/17 08:18:35;;;;;;;6.75;2.75;;;;;;;;;;5045065;28;20067;-67
2022/05/17 08:21:00;;;;;;;10.33;4.27;;;;;;;;;;5044727;28;20083;-67
2022/05/17 08:23:25;;;;;;;8.63;3.50;;;;;;;;;;5042480;28;20337;-67
2022/05/17 08:28:35;;;;;;;9.43;3.42;;;;;;;;;;5049069;28;20250;-67
2022/05/17 08:31:00;;;;;;;11.55;4.32;;;;;;;;;;5048270;28;20028;-67
2022/05/17 08:33:26;;;;;;;13.80;4.30;;;;;;;;;;5049536;28;20039;-67
2022/05/17 08:35:58;;;;;;;12.95;3.78;;;;;;;;;;5050526;28;20259;-67
2022/05/17 08:38:23;;;;;;;17.27;3.72;;;;;;;;;;5050396;28;20017;-67
2022/05/17 08:41:07;;;;;;;13.13;4.03;;;;;;;;;;5050068;28;20100;-67
2022/05/17 08:43:40;;;;;;;10.98;3.92;;;;;;;;;;5049980;28;20339;-67
2022/05/17 08:46:13;;;;;;;9.77;3.97;;;;;;;;;;5049070;28;20133;-67
2022/05/17 08:48:48;;;;;;;9.68;3.60;;;;;;;;;;5050055;28;20013;-67
2022/05/17 08:51:15;;;;;;;10.88;3.88;;;;;;;;;;5050347;28;20029;-67
2022/05/17 08:53:41;;;;;;;18.85;4.85;;;;;;;;;;5049667;28;20028;-67
2022/05/17 08:56:06;;;;;;;19.60;4.03;;;;;;;;;;5050639;28;20021;-67
2022/05/17 08:58:32;;;;;;;18.13;4.47;;;;;;;;;;5048857;28;20025;-67
2022/05/17 09:01:08;;;;;;;10.30;3.90;;;;;;;;;;5050417;28;20111;-67
2022/05/17 09:03:52;;;;;;;19.38;4.10;;;;;;;;;;5050308;28;20096;-67
2022/05/17 09:06:22;;;;;;;14.68;3.40;;;;;;;;;;5050111;28;20045;-66
2022/05/17 09:08:56;;;;;;;19.50;4.57;;;;;;;;;;5049981;28;20419;-66
2022/05/17 09:11:44;;;;;;;11.15;4.00;;;;;;;;;;5048299;28;20040;-67
2022/05/17 09:14:14;;;;;;;9.85;3.70;;;;;;;;;;5047854;28;20024;-67
2022/05/17 09:16:41;;;;;;;11.85;3.67;;;;;;;;;;5049655;28;20103;-66
2022/05/17 09:19:07;;;;;;;23.98;4.57;;;;;;;;;;5049710;28;20459;-67
2022/05/17 09:21:34;;;;;;;15.98;3.20;;;;;;;;;;5049806;28;20105;-66
2022/05/17 09:24:07;;;;;;;11.02;3.85;;;;;;;;;;5048630;28;20484;-69
2022/05/17 09:26:33;;;;;;;11.10;3.72;;;;;;;;;;5049845;28;20094;-67
2022/05/17 09:29:09;;;;;;;10.93;3.38;;;;;;;;;;5042690;28;20759;-66
2022/05/17 09:31:35;;;;;;;9.68;3.15;;;;;;;;;;5043342;28;20112;-67
2022/05/17 09:34:02;;;;;;;10.85;3.20;;;;;;;;;;5047650;28;20036;-67
2022/05/17 09:36:32;;;;;;;12.57;3.35;;;;;;;;;;5047882;28;20035;-67
2022/05/17 09:38:58;;;;;;;12.07;2.90;;;;;;;;;;5045447;28;20017;-67
2022/05/17 09:41:25;;;;;;;8.65;2.17;;;;;;;;;;5052291;28;20039;-67
2022/05/17 09:44:05;;;;;;;7.28;2.22;;;;;;;;;;5050037;28;20028;-67
2022/05/17 09:46:35;;;;;;;15.10;2.33;;;;;;;;;;5052614;28;20733;-67
2022/05/17 09:54:53;;;;;;;12.25;2.35;;;;;;;;;;5052119;28;20058;-67
2022/05/17 09:57:25;;;;;;;5.45;1.73;;;;;;;;;;5052611;28;20465;-67
2022/05/17 09:59:55;;;;;;;7.65;2.10;;;;;;;;;;5053041;28;20108;-66
2022/05/17 10:02:29;;;;;;;4.80;1.55;;;;;;;;;;5045676;28;20539;-67
2022/05/17 10:04:55;;;;;;;8.15;1.75;;;;;;;;;;5047417;28;20112;-67
2022/05/17 10:07:24;;;;;;;3.92;1.42;;;;;;;;;;5046134;28;20107;-67
2022/05/17 10:09:50;;;;;;;7.15;1.50;;;;;;;;;;5051122;28;20136;-67
2022/05/17 10:12:33;;;;;;;6.85;2.28;;;;;;;;;;5051048;28;20119;-67
2022/05/17 10:15:03;;;;;;;7.57;1.80;;;;;;;;;;5051054;28;20103;-67
2022/05/17 10:17:32;;;;;;;8.23;2.10;;;;;;;;;;5031410;28;20208;-67
2022/05/17 10:19:58;;;;;;;6.20;1.58;;;;;;;;;;5046341;28;20036;-67
2022/05/17 10:22:23;;;;;;;9.60;1.90;;;;;;;;;;5050614;28;20033;-67
2022/05/17 10:25:01;;;;;;;6.70;1.80;;;;;;;;;;5050189;28;20055;-67
2022/05/17 10:27:34;;;;;;;6.55;1.92;;;;;;;;;;5047514;28;20025;-67
2022/05/17 10:30:10;;;;;;;5.40;1.80;;;;;;;;;;5049520;28;20021;-67
2022/05/17 10:32:45;;;;;;;5.35;1.50;;;;;;;;;;5048930;28;20021;-67
2022/05/17 10:35:15;;;;;;;5.50;1.35;;;;;;;;;;5048797;28;20017;-67
2022/05/17 10:37:49;;;;;;;9.25;1.98;;;;;;;;;;5048878;28;20538;-67
2022/05/17 10:40:19;;;;;;;9.00;1.55;;;;;;;;;;5051958;28;20024;-67
2022/05/17 10:42:45;;;;;;;6.40;1.63;;;;;;;;;;5051861;28;20374;-67
2022/05/17 10:45:15;;;;;;;7.45;2.20;;;;;;;;;;5050651;28;20009;-67
2022/05/17 10:47:49;;;;;;;5.97;1.25;;;;;;;;;;5050323;28;20492;-67
2022/05/17 10:50:34;;;;;;;8.65;1.23;;;;;;;;;;5051203;28;20445;-68
2022/05/17 10:53:13;;;;;;;5.38;1.40;;;;;;;;;;5047043;28;20016;-68
2022/05/17 10:55:58;;;;;;;4.18;0.90;;;;;;;;;;5051078;28;20024;-67
2022/05/17 10:58:44;;;;;;;4.18;1.15;;;;;;;;;;5049094;28;20033;-68
2022/05/17 11:01:28;;;;;;;2.92;1.30;;;;;;;;;;5017128;28;20029;-68
2022/05/17 11:04:08;;;;;;;4.00;1.13;;;;;;;;;;5046206;28;20517;-68
2022/05/17 11:06:33;;;;;;;7.35;1.10;;;;;;;;;;5047767;28;20017;-68
2022/05/17 11:09:14;;;;;;;5.93;1.23;;;;;;;;;;5049112;28;20405;-68
2022/05/17 11:11:50;;;;;;;6.90;1.10;;;;;;;;;;5048729;28;20025;-67
2022/05/17 11:14:21;;;;;;;4.75;1.42;;;;;;;;;;5051143;28;20048;-68
2022/05/17 11:16:56;;;;;;;4.22;0.80;;;;;;;;;;5047930;28;20025;-68
2022/05/17 11:19:33;;;;;;;3.20;1.00;;;;;;;;;;5050058;28;20013;-68
2022/05/17 11:22:02;;;;;;;3.17;1.02;;;;;;;;;;5047326;28;20033;-68
2022/05/17 11:24:28;;;;;;;3.00;0.85;;;;;;;;;;5048172;28;20029;-68
2022/05/17 11:27:13;;;;;;;5.00;1.35;;;;;;;;;;5047368;28;20017;-68
2022/05/17 11:29:52;;;;;;;2.53;0.80;;;;;;;;;;5045656;28;20462;-67
2022/05/17 11:32:23;;;;;;;7.47;1.20;;;;;;;;;;5048548;28;20032;-67
2022/05/17 11:34:49;;;;;;;9.60;1.35;;;;;;;;;;5046647;28;20286;-67
2022/05/17 11:37:32;;;;;;;2.85;0.80;;;;;;;;;;5045151;28;20065;-67
2022/05/17 11:40:03;;;;;;;2.30;1.05;;;;;;;;;;5048092;28;20024;-68
2022/05/17 11:42:30;;;;;;;3.22;0.80;;;;;;;;;;5050578;28;20045;-67
2022/05/17 11:44:57;;;;;;;4.70;1.27;;;;;;;;;;5047029;28;20017;-68
2022/05/17 11:47:28;;;;;;;8.82;3.80;;;;;;;;;;5050176;28;20009;-67
2022/05/17 11:50:13;;;;;;;4.35;1.02;;;;;;;;;;5049010;28;20415;-67
2022/05/17 11:52:38;;;;;;;2.75;0.82;;;;;;;;;;5049676;28;20363;-67
2022/05/17 11:55:04;;;;;;;3.57;0.90;;;;;;;;;;5048539;28;20029;-67
2022/05/17 11:57:30;;;;;;;2.97;1.20;;;;;;;;;;5045150;28;20287;-66
2022/05/17 11:59:55;;;;;;;1.63;0.50;;;;;;;;;;5049292;28;20113;-67
2022/05/17 12:02:39;;;;;;;3.83;1.10;;;;;;;;;;5047322;28;20504;-67
2022/05/17 12:05:06;;;;;;;3.60;1.02;;;;;;;;;;5047408;28;20017;-67
2022/05/17 12:07:31;;;;;;;2.88;0.70;;;;;;;;;;5049194;28;20097;-67
2022/05/17 12:10:08;;;;;;;4.43;0.82;;;;;;;;;;5045158;28;20112;-67
2022/05/17 12:12:43;;;;;;;2.40;1.02;;;;;;;;;;5046539;28;20107;-67
2022/05/17 12:15:31;;;;;;;9.55;0.85;;;;;;;;;;5042791;28;20052;-67
2022/05/17 12:18:09;;;;;;;4.90;0.80;;;;;;;;;;5043838;28;20025;-67
2022/05/17 12:20:43;;;;;;;2.50;0.88;;;;;;;;;;5048913;28;20028;-67
2022/05/17 12:23:08;;;;;;;5.45;1.08;;;;;;;;;;5045830;28;20020;-67
2022/05/17 12:25:33;;;;;;;4.15;1.20;;;;;;;;;;5047242;28;20028;-67
2022/05/17 12:27:59;;;;;;;1.63;0.90;;;;;;;;;;5048441;28;20017;-67
2022/05/17 12:33:10;;;;;;;2.85;1.20;;;;;;;;;;5049339;28;20027;-67
2022/05/17 12:35:36;;;;;;;1.95;0.80;;;;;;;;;;5047575;28;20029;-66
2022/05/17 12:38:01;;;;;;;4.82;1.08;;;;;;;;;;5050087;28;20020;-66
2022/05/17 12:43:30;;;;;;;3.50;0.60;;;;;;;;;;5048050;28;20048;-67
2022/05/17 12:46:00;;;;;;;2.90;1.10;;;;;;;;;;5045068;28;20029;-67
2022/05/17 12:48:26;;;;;;;5.32;1.00;;;;;;;;;;5048775;28;20025;-67
2022/05/17 12:50:52;;;;;;;2.45;0.75;;;;;;;;;;5046697;28;20024;-68
2022/05/17 12:53:25;;;;;;;3.85;0.90;;;;;;;;;;5047129;28;20350;-68
2022/05/17 12:55:59;;;;;;;4.53;1.02;;;;;;;;;;5048154;28;20024;-66
2022/05/17 12:58:24;;;;;;;2.90;0.85;;;;;;;;;;5048721;28;20029;-66
2022/05/17 13:00:58;;;;;;;5.50;0.90;;;;;;;;;;5047876;28;20017;-66
2022/05/17 13:03:24;;;;;;;10.20;1.20;;;;;;;;;;5045166;28;20025;-66
2022/05/17 13:05:51;;;;;;;2.40;0.98;;;;;;;;;;5046921;28;20032;-66
2022/05/17 13:08:36;;;;;;;5.35;1.48;;;;;;;;;;5046894;28;20098;-66
2022/05/17 13:11:02;;;;;;;4.05;1.38;;;;;;;;;;5048453;28;20364;-66
2022/05/17 13:13:27;;;;;;;4.83;1.03;;;;;;;;;;5045431;28;20124;-66
2022/05/17 13:15:58;;;;;;;4.93;1.10;;;;;;;;;;5046355;28;20647;-67
2022/05/17 13:18:27;;;;;;;3.65;0.90;;;;;;;;;;5048653;28;20013;-67
2022/05/17 13:20:52;;;;;;;5.10;1.25;;;;;;;;;;5051995;28;20017;-67
2022/05/17 13:23:22;;;;;;;2.42;0.93;;;;;;;;;;5048795;28;20028;-67
2022/05/17 13:25:48;;;;;;;5.03;0.90;;;;;;;;;;5051798;28;20393;-66
2022/05/17 13:28:23;;;;;;;4.53;0.90;;;;;;;;;;5051108;28;20040;-67
2022/05/17 13:30:49;;;;;;;2.10;0.90;;;;;;;;;;5050607;28;20018;-67
2022/05/17 13:33:26;;;;;;;4.55;1.10;;;;;;;;;;5052248;28;20021;-67
2022/05/17 13:36:02;;;;;;;3.42;1.10;;;;;;;;;;5049252;28;20009;-66
2022/05/17 13:38:29;;;;;;;5.53;1.23;;;;;;;;;;5049643;28;20037;-67
2022/05/17 13:40:59;;;;;;;3.35;1.10;;;;;;;;;;5051941;28;20009;-67
2022/05/17 13:43:29;;;;;;;2.00;0.70;;;;;;;;;;5047619;28;20016;-67
2022/05/17 13:45:54;;;;;;;;;;;;;;;;;;5049748;28;20104;-67
2022/05/17 13:48:19;;;;;;;1.58;0.52;;;;;;;;;;5050571;28;20011;-67
2022/05/17 13:50:52;;;;;;;4.63;1.20;;;;;;;;;;5050935;28;20079;-67
2022/05/17 13:53:19;;;;;;;1.38;0.80;;;;;;;;;;5050117;28;20275;-67
2022/05/17 13:55:45;;;;;;;2.65;0.70;;;;;;;;;;5049964;28;20017;-67
2022/05/17 13:58:11;;;;;;;3.40;0.73;;;;;;;;;;5045634;28;20028;-67
2022/05/17 14:00:38;;;;;;;1.90;0.82;;;;;;;;;;5047750;28;20497;-67
2022/05/17 14:03:15;;;;;;;7.45;1.02;;;;;;;;;;5046433;28;20025;-67
2022/05/17 14:05:58;;;;;;;1.65;0.70;;;;;;;;;;5048799;28;20025;-67
2022/05/17 14:13:57;;;;;;;4.10;0.80;;;;;;;;;;5051729;28;20528;-67
2022/05/17 14:16:24;;;;;;;2.63;0.53;;;;;;;;;;5052462;28;20025;-67
2022/05/17 14:18:50;;;;;;;1.60;0.77;;;;;;;;;;5052709;28;20740;-66
2022/05/17 14:21:16;;;;;;;2.72;0.85;;;;;;;;;;5050742;28;20028;-67
2022/05/17 14:23:41;;;;;;;1.40;0.63;;;;;;;;;;5050252;28;20366;-67
2022/05/17 14:26:07;;;;;;;6.07;1.20;;;;;;;;;;5049604;28;20078;-67
2022/05/17 14:28:33;;;;;;;5.50;0.73;;;;;;;;;;5040792;28;20025;-68
2022/05/17 14:30:58;;;;;;;3.65;0.85;;;;;;;;;;5051143;28;20009;-67
2022/05/17 14:33:23;;;;;;;5.50;1.17;;;;;;;;;;5050292;28;20021;-67
2022/05/17 14:35:50;;;;;;;2.78;1.30;;;;;;;;;;5052143;28;20013;-68
2022/05/17 14:38:15;;;;;;;4.30;1.10;;;;;;;;;;5051017;28;20033;-68
2022/05/17 14:40:40;;;;;;;4.33;1.10;;;;;;;;;;5052318;28;20020;-67
2022/05/17 14:43:05;;;;;;;5.20;1.03;;;;;;;;;;5051965;28;20353;-68
2022/05/17 14:45:31;;;;;;;1.77;1.08;;;;;;;;;;5051981;28;20784;-67
2022/05/17 14:47:57;;;;;;;3.25;0.90;;;;;;;;;;5050488;28;20441;-68
2022/05/17 14:50:23;;;;;;;3.17;1.05;;;;;;;;;;5052421;28;20102;-68
2022/05/17 14:52:49;;;;;;;5.15;1.42;;;;;;;;;;5050524;28;20024;-67
2022/05/17 14:55:17;;;;;;;6.35;0.95;;;;;;;;;;5046361;28;20034;-68
2022/05/17 14:57:43;;;;;;;3.80;1.42;;;;;;;;;;5039439;28;20393;-66
2022/05/17 15:00:10;;;;;;;5.35;1.05;;;;;;;;;;5030787;28;20025;-66
2022/05/17 15:02:37;;;;;;;5.55;1.02;;;;;;;;;;5041384;28;20391;-66